Time;durP1;ratioP1;P1;durP2;ratioP2;P2;SDS_P1;SDS_P2;PMS_P1;PMS_P2;Temp;Humidity;BMP_temperature;BMP_pressure;BME280_temperature;BME280_humidity;BME280_pressure;Samples;Min_cycle;Max_cycle;Signal;HPM_P1;HPM_P2
2021/10/02 00:46:22;;;;;;;;;5.00;5.00;;;;;15.10;100.00;101184.19;5100340;27;45295;-70
2021/10/02 00:48:48;;;;;;;;;6.25;5.75;;;;;15.16;100.00;101196.31;5099439;27;47472;-70
2021/10/02 00:51:13;;;;;;;;;4.50;4.50;;;;;15.19;100.00;101207.63;5099840;27;45229;-69
2021/10/02 00:53:39;;;;;;;;;9.00;4.50;;;;;15.15;100.00;101205.97;5099946;27;45316;-70
2021/10/02 00:56:05;;;;;;;;;4.50;4.50;;;;;15.12;100.00;101194.66;5100151;27;45408;-70
2021/10/02 00:58:30;;;;;;;;;5.00;5.00;;;;;15.20;100.00;101208.50;5099633;27;46348;-69
2021/10/02 01:00:59;;;;;;;;;6.50;5.75;;;;;15.22;100.00;101196.19;5099210;27;45279;-69
2021/10/02 01:10:16;;;;;;;;;5.00;4.00;;;;;15.30;100.00;101200.31;5119622;27;45521;-69
2021/10/02 01:13:00;;;;;;;;;8.50;6.00;;;;;15.35;100.00;101199.31;5119851;27;45701;-70
2021/10/02 01:15:53;;;;;;;;;5.50;5.50;;;;;15.37;100.00;101201.00;5120602;27;45284;-70
2021/10/02 01:18:28;;;;;;;;;5.50;5.50;;;;;15.34;100.00;101195.84;5120776;27;45420;-70
2021/10/02 01:24:48;;;;;;;;;4.25;4.25;;;;;15.43;100.00;101194.75;5119735;27;45308;-70
2021/10/02 01:27:26;;;;;;;;;4.50;4.50;;;;;15.43;100.00;101189.47;5119573;27;45315;-71
2021/10/02 01:29:53;;;;;;;;;5.00;4.50;;;;;15.35;100.00;101175.66;5102221;27;45431;-70
2021/10/02 01:32:36;;;;;;;;;5.50;5.50;;;;;15.39;100.00;101183.44;5119834;27;45293;-70
2021/10/02 01:35:17;;;;;;;;;7.75;6.00;;;;;15.36;100.00;101172.13;5119409;27;45390;-72
2021/10/02 01:52:05;;;;;;;;;4.50;4.00;;;;;15.30;100.00;101152.09;5119748;27;45275;-70
2021/10/02 01:54:33;;;;;;;;;6.75;5.00;;;;;15.24;100.00;101141.75;5118642;27;47354;-70
2021/10/02 01:57:00;;;;;;;;;7.50;6.00;;;;;15.28;100.00;101146.88;5118625;27;45702;-70
2021/10/02 01:59:30;;;;;;;;;5.00;5.00;;;;;15.27;100.00;101133.78;5118987;27;45448;-70
2021/10/02 02:01:56;;;;;;;;;7.25;6.00;;;;;15.22;100.00;101126.00;5119367;27;45472;-70
2021/10/02 02:07:50;;;;;;;;;6.25;4.75;;;;;15.21;100.00;101126.91;5118868;27;45279;-70
2021/10/02 02:10:18;;;;;;;;;5.50;5.50;;;;;15.24;100.00;101139.97;5118782;27;45319;-70
2021/10/02 02:12:45;;;;;;;;;7.50;5.75;;;;;15.21;100.00;101136.59;5119054;27;45342;-70
2021/10/02 02:15:13;;;;;;;;;5.00;5.00;;;;;15.22;100.00;101128.66;5119335;27;45585;-70
2021/10/02 02:17:43;;;;;;;;;7.75;5.75;;;;;15.22;100.00;101123.38;5119212;27;45331;-70
2021/10/02 02:23:30;;;;;;;;;5.50;5.00;;;;;15.16;100.00;101122.66;5119037;27;45480;-70
2021/10/02 02:26:00;;;;;;;;;5.25;4.75;;;;;15.18;100.00;101118.25;5118613;27;46195;-70
2021/10/02 02:28:26;;;;;;;;;4.25;4.00;;;;;15.15;100.00;101118.31;5118819;27;45285;-70
2021/10/02 02:30:52;;;;;;;;;8.50;6.00;;;;;15.15;100.00;101115.69;5118879;27;45370;-70
2021/10/02 02:33:19;;;;;;;;;8.50;7.50;;;;;15.10;100.00;101099.16;5119198;27;45309;-70
2021/10/02 02:39:06;;;;;;;;;9.50;8.00;;;;;15.05;100.00;101083.53;5118999;27;45639;-70
2021/10/02 02:41:31;;;;;;;;;6.75;6.75;;;;;15.04;100.00;101067.78;5119287;27;45298;-70
2021/10/02 02:43:57;;;;;;;;;10.00;6.75;;;;;15.06;100.00;101087.00;5119588;27;45245;-70
2021/10/02 02:46:36;;;;;;;;;10.00;9.50;;;;;15.08;100.00;101101.84;5118648;27;46113;-70
2021/10/02 02:55:20;;;;;;;;;9.00;8.25;;;;;15.00;100.00;101067.88;5119171;27;45327;-70
2021/10/02 02:57:56;;;;;;;;;7.25;7.00;;;;;15.04;100.00;101081.78;5118109;27;47330;-71
2021/10/02 03:00:23;;;;;;;;;9.25;8.50;;;;;14.97;100.00;101067.97;5118890;27;45414;-70
2021/10/02 03:03:00;;;;;;;;;8.25;6.50;;;;;14.91;100.00;101072.50;5118752;27;45306;-69
2021/10/02 03:05:28;;;;;;;;;7.75;6.00;;;;;14.94;100.00;101073.31;5118911;27;45325;-69
2021/10/02 03:07:59;;;;;;;;;10.00;10.00;;;;;14.90;100.00;101069.00;5118262;27;45290;-70
2021/10/02 03:10:26;;;;;;;;;9.00;9.00;;;;;14.91;100.00;101065.47;5117330;27;45660;-69
2021/10/02 03:12:55;;;;;;;;;9.50;6.00;;;;;14.87;100.00;101044.56;5118649;27;45833;-70
2021/10/02 03:15:21;;;;;;;;;7.50;6.25;;;;;14.82;100.00;101022.81;5118750;27;45455;-70
2021/10/02 03:17:50;;;;;;;;;11.00;8.00;;;;;14.82;100.00;101049.97;5118171;27;46247;-70
2021/10/02 03:20:16;;;;;;;;;9.00;8.00;;;;;14.85;100.00;101057.75;5118401;27;45439;-70
2021/10/02 03:22:45;;;;;;;;;11.75;9.00;;;;;14.86;100.00;101056.84;5118606;27;45283;-70
2021/10/02 03:25:12;;;;;;;;;7.25;6.00;;;;;14.91;100.00;101065.47;5118651;27;45311;-69
2021/10/02 03:27:39;;;;;;;;;8.00;6.50;;;;;14.95;100.00;101047.88;5118249;27;46350;-70
2021/10/02 03:30:07;;;;;;;;;5.50;5.25;;;;;14.90;100.00;101026.09;5118604;27;45195;-70
2021/10/02 03:32:32;;;;;;;;;5.75;5.50;;;;;14.96;100.00;101032.06;5118263;27;45397;-70
2021/10/02 03:34:58;;;;;;;;;8.00;8.00;;;;;14.93;100.00;101021.59;5118789;27;45361;-70
2021/10/02 03:37:24;;;;;;;;;5.25;5.25;;;;;14.94;100.00;101020.72;5118184;27;46479;-70
2021/10/02 03:39:49;;;;;;;;;9.75;8.75;;;;;14.89;100.00;101003.31;5118456;27;45359;-70
2021/10/02 03:42:18;;;;;;;;;7.75;7.25;;;;;14.90;100.00;101005.91;5099874;27;45721;-71
2021/10/02 03:44:46;;;;;;;;;9.00;6.25;;;;;14.92;100.00;101009.34;5118256;27;45521;-71
2021/10/02 03:47:13;;;;;;;;;8.75;8.00;;;;;14.89;100.00;101009.44;5118417;27;45181;-71
2021/10/02 03:49:39;;;;;;;;;5.50;5.50;;;;;14.83;100.00;100995.63;5117960;27;46204;-70
2021/10/02 03:52:05;;;;;;;;;7.75;5.00;;;;;14.87;100.00;100992.84;5118380;27;45276;-71
2021/10/02 03:54:32;;;;;;;;;4.00;3.00;;;;;14.87;100.00;101003.38;5118225;27;45337;-70
2021/10/02 03:56:58;;;;;;;;;5.00;5.00;;;;;14.81;100.00;101005.31;5118061;27;45771;-70
2021/10/02 03:59:23;;;;;;;;;7.75;6.50;;;;;14.81;100.00;101021.94;5117689;27;45398;-70
2021/10/02 04:01:49;;;;;;;;;6.25;6.25;;;;;14.58;100.00;100983.16;5118147;27;45286;-70
2021/10/02 04:04:14;;;;;;;;;4.00;3.75;;;;;14.81;100.00;101018.47;5118232;27;45329;-70
2021/10/02 04:10:04;;;;;;;;;8.00;6.25;;;;;14.76;100.00;100992.31;5116175;27;45712;-70
2021/10/02 04:12:30;;;;;;;;;6.25;6.25;;;;;14.74;100.00;100996.75;5117771;27;45290;-70
2021/10/02 04:14:55;;;;;;;;;7.00;7.00;;;;;14.70;100.00;101005.59;5117860;27;45261;-70
2021/10/02 04:17:21;;;;;;;;;7.75;5.25;;;;;14.71;100.00;101012.59;5117479;27;45427;-70
2021/10/02 04:19:46;;;;;;;;;7.00;6.50;;;;;14.69;100.00;101006.50;5117631;27;45357;-70
2021/10/02 04:22:12;;;;;;;;;5.25;5.00;;;;;14.64;100.00;101000.50;5121236;27;45340;-71
2021/10/02 04:24:40;;;;;;;;;7.00;5.00;;;;;14.63;100.00;100997.03;5121236;27;45290;-70
2021/10/02 04:27:06;;;;;;;;;6.00;6.00;;;;;14.61;100.00;100995.34;5120742;27;46112;-71
2021/10/02 04:29:31;;;;;;;;;7.25;5.75;;;;;14.66;100.00;101002.19;5120886;27;45352;-71
2021/10/02 04:31:57;;;;;;;;;9.00;7.50;;;;;14.63;100.00;100999.66;5120881;27;45321;-70
2021/10/02 04:34:22;;;;;;;;;7.00;5.25;;;;;14.65;100.00;100996.97;5121287;27;45326;-70
2021/10/02 04:40:10;;;;;;;;;9.00;7.00;;;;;14.64;100.00;101005.75;5120900;27;45398;-70
2021/10/02 04:42:36;;;;;;;;;9.75;7.00;;;;;14.72;100.00;101011.69;5121155;27;45357;-70
2021/10/02 04:45:01;;;;;;;;;6.25;4.75;;;;;14.62;100.00;100971.66;5121119;27;45311;-70
2021/10/02 04:47:27;;;;;;;;;10.50;8.50;;;;;14.74;100.00;100973.09;5120062;27;46249;-70
2021/10/02 04:49:53;;;;;;;;;6.25;5.25;;;;;14.73;100.00;100981.03;5120790;27;45279;-70
2021/10/02 04:55:42;;;;;;;;;8.75;8.00;;;;;14.89;100.00;100996.31;5120933;27;45389;-71
2021/10/02 04:58:07;;;;;;;;;9.25;7.00;;;;;14.90;100.00;100995.41;5120406;27;46169;-70
2021/10/02 05:00:32;;;;;;;;;9.75;7.00;;;;;14.96;100.00;101007.53;5101809;27;45848;-70
2021/10/02 05:03:01;;;;;;;;;7.75;6.50;;;;;14.95;100.00;101009.31;5120568;27;45342;-71
2021/10/02 05:05:26;;;;;;;;;8.00;7.50;;;;;14.93;100.00;100999.69;5120275;27;45570;-70
2021/10/02 05:07:52;;;;;;;;;7.25;7.00;;;;;15.02;100.00;101021.34;5119885;27;46953;-70
2021/10/02 05:10:17;;;;;;;;;8.50;7.75;;;;;15.05;100.00;101011.66;5120235;27;45419;-70
2021/10/02 05:12:42;;;;;;;;;8.75;8.75;;;;;15.05;100.00;101006.41;5120421;27;45433;-70
2021/10/02 05:15:08;;;;;;;;;10.50;9.00;;;;;15.02;100.00;101000.31;5120381;27;45342;-70
2021/10/02 05:17:34;;;;;;;;;8.50;6.75;;;;;15.06;100.00;101001.09;5120137;27;45425;-71
2021/10/02 05:19:59;;;;;;;;;5.00;4.50;;;;;15.10;100.00;100997.47;5120002;27;45326;-70
2021/10/02 05:25:46;;;;;;;;;7.00;7.00;;;;;15.07;100.00;100975.66;5120365;27;45299;-70
2021/10/02 05:28:11;;;;;;;;;10.50;8.00;;;;;14.96;100.00;100965.47;5119784;27;46998;-70
2021/10/02 05:30:39;;;;;;;;;8.75;7.75;;;;;15.06;100.00;100968.69;5119938;27;45243;-70
2021/10/02 05:33:05;;;;;;;;;8.00;6.25;;;;;14.98;100.00;100953.13;5118872;27;45321;-70
2021/10/02 05:35:34;;;;;;;;;6.50;4.75;;;;;15.05;100.00;100961.69;5120323;27;45357;-70
2021/10/02 05:38:00;;;;;;;;;8.00;4.25;;;;;15.05;100.00;100959.06;5119312;27;47026;-70
2021/10/02 05:40:26;;;;;;;;;8.50;6.75;;;;;15.06;100.00;100956.38;5119492;27;45668;-71
2021/10/02 05:42:51;;;;;;;;;6.50;5.25;;;;;15.07;100.00;100949.38;5119721;27;45222;-70
2021/10/02 05:45:17;;;;;;;;;8.50;7.50;;;;;15.06;100.00;100945.00;5120459;27;45291;-70
2021/10/02 05:47:42;;;;;;;;;5.25;5.25;;;;;15.04;100.00;100937.16;5119478;27;45286;-71
2021/10/02 05:50:08;;;;;;;;;8.50;8.25;;;;;15.10;100.00;100938.75;5119318;27;45362;-70
2021/10/02 05:55:55;;;;;;;;;7.25;5.00;;;;;15.04;100.00;100936.31;5119407;27;45280;-71
2021/10/02 05:58:20;;;;;;;;;8.00;6.50;;;;;15.06;100.00;100950.28;5119260;27;47427;-71
2021/10/02 06:00:47;;;;;;;;;7.75;7.25;;;;;15.05;100.00;100941.53;5100820;27;45856;-71
2021/10/02 06:03:13;;;;;;;;;10.00;9.00;;;;;15.05;100.00;100946.78;5119622;27;45330;-67
2021/10/02 06:05:38;;;;;;;;;8.75;7.50;;;;;15.10;100.00;100949.28;5119772;27;45376;-70
2021/10/02 06:08:04;;;;;;;;;6.25;6.25;;;;;15.08;100.00;100940.56;5118835;27;45641;-68
2021/10/02 06:10:30;;;;;;;;;8.25;6.50;;;;;15.09;100.00;100948.41;5118485;27;45349;-67
2021/10/02 06:12:55;;;;;;;;;8.00;5.25;;;;;15.15;100.00;100956.09;5118541;27;45349;-70
2021/10/02 06:15:23;;;;;;;;;8.00;5.50;;;;;15.17;100.00;100964.84;5118876;27;45591;-77
2021/10/02 06:17:49;;;;;;;;;9.50;8.75;;;;;15.15;100.00;100963.13;5118771;27;45379;-69
2021/10/02 06:20:15;;;;;;;;;10.75;8.50;;;;;15.21;100.00;100961.22;5119047;27;45719;-68
2021/10/02 06:26:02;;;;;;;;;8.00;5.25;;;;;15.25;100.00;100947.06;5119151;27;45359;-67
2021/10/02 06:28:28;;;;;;;;;6.00;5.00;;;;;15.23;100.00;100937.50;5118711;27;46306;-67
2021/10/02 06:30:54;;;;;;;;;4.00;4.00;;;;;15.25;100.00;100918.13;5118720;27;45242;-68
2021/10/02 06:33:19;;;;;;;;;9.50;5.50;;;;;15.25;100.00;100917.25;5119023;27;45270;-69
2021/10/02 06:35:44;;;;;;;;;3.75;3.00;;;;;15.23;100.00;100919.94;5119276;27;45483;-71
2021/10/02 06:38:10;;;;;;;;;6.50;5.00;;;;;15.20;100.00;100925.28;5118806;27;46312;-69
2021/10/02 06:40:38;;;;;;;;;5.00;3.50;;;;;15.23;100.00;100922.56;5118446;27;45449;-70
2021/10/02 06:43:03;;;;;;;;;6.50;4.00;;;;;15.29;100.00;100924.13;5118499;27;45407;-68
2021/10/02 06:45:29;;;;;;;;;5.00;3.00;;;;;15.31;100.00;100924.94;5117413;27;45304;-68
2021/10/02 06:47:54;;;;;;;;;2.50;2.00;;;;;15.30;100.00;100912.72;5118395;27;46659;-67
2021/10/02 06:50:20;;;;;;;;;4.00;3.00;;;;;15.36;100.00;100922.16;5118782;27;45340;-67
2021/10/02 06:56:07;;;;;;;;;4.25;3.00;;;;;15.37;100.00;100927.38;5118712;27;45306;-66
2021/10/02 06:58:32;;;;;;;;;2.75;2.00;;;;;15.38;100.00;100931.72;5118391;27;46283;-66
2021/10/02 07:00:58;;;;;;;;;5.75;3.00;;;;;15.38;100.00;100923.84;5118708;27;45386;-66
2021/10/02 07:03:23;;;;;;;;;2.00;1.00;;;;;15.34;100.00;100909.06;5118541;27;45475;-66
2021/10/02 07:05:48;;;;;;;;;5.00;3.00;;;;;15.39;100.00;100917.69;5118648;27;45429;-67
2021/10/02 07:11:35;;;;;;;;;2.00;2.00;;;;;15.39;100.00;100941.38;5116078;27;45511;-66
2021/10/02 07:14:01;;;;;;;;;3.00;2.75;;;;;15.38;100.00;100929.09;5118137;27;45263;-66
2021/10/02 07:16:26;;;;;;;;;2.75;2.75;;;;;15.42;100.00;100933.38;5118284;27;45316;-66
2021/10/02 07:18:51;;;;;;;;;2.25;2.00;;;;;15.43;100.00;100929.00;5117727;27;46139;-65
2021/10/02 07:21:17;;;;;;;;;5.00;3.25;;;;;15.44;100.00;100910.53;5117425;27;45245;-66
2021/10/02 07:23:42;;;;;;;;;8.50;4.00;;;;;15.68;100.00;100908.03;5116386;27;45361;-67
2021/10/02 07:26:08;;;;;;;;;5.00;3.50;;;;;15.75;100.00;100893.75;5117940;27;45461;-67
2021/10/02 07:28:33;;;;;;;;;4.25;2.75;;;;;15.85;100.00;100879.41;5117533;27;45447;-65
2021/10/02 07:30:59;;;;;;;;;4.75;3.00;;;;;16.09;100.00;100893.50;5117527;27;45387;-68
2021/10/02 07:33:26;;;;;;;;;5.00;3.00;;;;;16.28;100.00;100901.59;5117434;27;45451;-67
2021/10/02 07:35:52;;;;;;;;;5.50;2.00;;;;;16.39;100.00;100888.91;5117559;27;45362;-67
2021/10/02 07:41:42;;;;;;;;;3.75;3.00;;;;;16.82;100.00;100890.88;5117126;27;45347;-68
2021/10/02 07:44:13;;;;;;;;;2.00;1.50;;;;;16.98;100.00;100878.81;5117793;27;45336;-67
2021/10/02 07:46:47;;;;;;;;;3.00;2.50;;;;;17.12;100.00;100878.28;5117567;27;45456;-67
2021/10/02 07:49:15;;;;;;;;;1.50;1.50;;;;;17.13;100.00;100877.34;5116964;27;47317;-71
2021/10/02 07:51:42;;;;;;;;;4.75;3.00;;;;;17.11;100.00;100876.56;5116954;27;45381;-64
2021/10/02 07:54:09;;;;;;;;;1.75;1.00;;;;;17.03;100.00;100870.72;5117605;27;45284;-62
2021/10/02 07:56:38;;;;;;;;;3.00;2.00;;;;;16.95;100.00;100873.63;5120104;27;45310;-62
2021/10/02 07:59:05;;;;;;;;;3.00;2.50;;;;;16.75;100.00;100858.59;5120568;27;46995;-62
2021/10/02 08:01:31;;;;;;;;;1.75;1.00;;;;;16.77;100.00;100880.50;5120761;27;45330;-62
2021/10/02 08:03:57;;;;;;;;;3.00;3.00;;;;;16.68;100.00;100880.81;5121128;27;45505;-62
2021/10/02 08:06:22;;;;;;;;;2.00;2.00;;;;;16.58;100.00;100881.19;5120942;27;45441;-63
2021/10/02 08:08:51;;;;;;;;;3.00;2.00;;;;;16.48;100.00;100883.28;5120536;27;45704;-62
2021/10/02 08:11:17;;;;;;;;;2.00;1.75;;;;;16.45;100.00;100875.50;5120383;27;45404;-63
2021/10/02 08:13:42;;;;;;;;;2.75;2.00;;;;;16.39;100.00;100849.38;5120585;27;45271;-62
2021/10/02 08:16:09;;;;;;;;;0.75;0.75;;;;;16.50;100.00;100860.38;5120644;27;45357;-64
2021/10/02 08:18:38;;;;;;;;;3.00;2.00;;;;;16.53;100.00;100852.38;5120359;27;46594;-63
2021/10/02 08:21:05;;;;;;;;;3.75;2.00;;;;;16.53;100.00;100849.75;5120594;27;45293;-63
2021/10/02 08:26:53;;;;;;;;;3.75;2.00;;;;;16.82;100.00;100841.63;5120778;27;45408;-62
2021/10/02 08:29:20;;;;;;;;;2.00;2.00;;;;;17.15;100.00;100863.19;5120271;27;47361;-61
2021/10/02 08:31:46;;;;;;;;;2.00;2.00;;;;;17.23;100.00;100846.19;5120381;27;45402;-64
2021/10/02 08:34:11;;;;;;;;;1.00;1.00;;;;;17.33;100.00;100843.13;5120831;27;45306;-64
2021/10/02 08:36:37;;;;;;;;;1.50;1.25;;;;;17.78;100.00;100838.66;5120634;27;45217;-63
2021/10/02 08:39:02;;;;;;;;;2.75;2.00;;;;;18.06;100.00;100818.06;5120074;27;46916;-62
2021/10/02 08:41:28;;;;;;;;;3.00;2.00;;;;;18.51;100.00;100825.72;5120322;27;45402;-63
2021/10/02 08:43:53;;;;;;;;;2.00;2.00;;;;;18.62;100.00;100807.59;5120530;27;45480;-62
2021/10/02 08:46:20;;;;;;;;;4.00;3.25;;;;;18.86;100.00;100805.59;5120348;27;45356;-66
2021/10/02 08:49:27;;;;;;;;;4.25;2.75;;;;;18.94;100.00;100818.44;5119843;27;46602;-63
2021/10/02 08:51:54;;;;;;;;;3.00;2.00;;;;;18.81;100.00;100836.72;5036350;28;45555;-62
2021/10/02 08:54:19;;;;;;;;;2.50;2.00;;;;;18.70;100.00;100846.06;5036323;28;45429;-63
2021/10/02 08:56:50;;;;;;;;;3.00;2.00;;;;;18.55;100.00;100819.34;5036658;28;45467;-63
2021/10/02 08:59:16;;;;;;;;;3.00;2.00;;;;;18.54;100.00;100819.41;5036243;28;46522;-63
2021/10/02 09:01:42;;;;;;;;;2.00;2.00;;;;;18.63;100.00;100819.91;5036014;28;45387;-63
2021/10/02 09:04:07;;;;;;;;;3.00;2.00;;;;;18.67;100.00;100808.25;5036180;28;45346;-64
2021/10/02 09:06:34;;;;;;;;;2.00;2.00;;;;;18.66;100.00;100809.19;5036484;28;45505;-62
2021/10/02 09:12:22;;;;;;;;;3.75;2.75;;;;;18.53;100.00;100807.13;5023998;28;45500;-63
2021/10/02 09:14:50;;;;;;;;;2.75;2.00;;;;;19.42;100.00;100803.75;5016239;28;45500;-62
2021/10/02 09:17:15;;;;;;;;;2.75;2.75;;;;;20.33;100.00;100799.03;5016270;28;45435;-62
2021/10/02 09:19:41;;;;;;;;;3.00;2.00;;;;;21.14;100.00;100772.47;5015986;28;46994;-63
2021/10/02 09:22:11;;;;;;;;;1.50;1.50;;;;;21.80;100.00;100745.53;5016215;28;45500;-63
2021/10/02 09:24:42;;;;;;;;;3.75;3.25;;;;;22.18;100.00;100737.88;5016113;28;45366;-63
2021/10/02 09:27:16;;;;;;;;;2.00;2.00;;;;;22.64;100.00;100753.63;5016477;28;45328;-62
2021/10/02 09:29:50;;;;;;;;;1.00;1.00;;;;;23.09;100.00;100737.31;5095345;27;46453;-65
2021/10/02 09:32:19;;;;;;;;;3.50;3.00;;;;;23.28;100.00;100734.25;5098923;27;45534;-64
2021/10/02 09:35:14;;;;;;;;;3.00;2.00;;;;;23.28;100.00;100744.91;5098981;27;45367;-63
2021/10/02 09:37:42;;;;;;;;;3.00;3.00;;;;;22.81;100.00;100719.63;5098709;27;45626;-62
2021/10/02 09:40:20;;;;;;;;;3.50;2.00;;;;;22.35;100.00;100708.41;5098314;27;46080;-65
2021/10/02 09:42:55;;;;;;;;;1.25;1.00;;;;;22.37;100.00;100705.66;5098650;27;45520;-65
2021/10/02 09:45:28;;;;;;;;;2.00;2.00;;;;;22.66;100.00;100690.47;5098979;27;45319;-64
2021/10/02 09:47:56;;;;;;;;;3.25;2.25;;;;;23.33;100.00;100675.34;5080348;27;45422;-64
2021/10/02 09:50:25;;;;;;;;;2.25;2.00;;;;;24.32;100.00;100661.22;5098539;27;45766;-64
2021/10/02 09:52:57;;;;;;;;;3.75;3.00;;;;;25.10;100.00;100654.56;5098314;27;45367;-64
2021/10/02 09:55:26;;;;;;;;;2.00;2.00;;;;;25.71;100.00;100634.66;5099032;27;45377;-64
2021/10/02 09:58:12;;;;;;;;;2.75;2.00;;;;;25.39;100.00;100636.31;5098652;27;45343;-65
2021/10/02 10:00:40;;;;;;;;;2.00;2.00;;;;;24.91;100.00;100618.56;5098368;27;45672;-67
2021/10/02 10:03:09;;;;;;;;;2.00;2.00;;;;;25.22;100.00;100601.03;5098425;27;45600;-64
2021/10/02 10:05:43;;;;;;;;;2.00;2.00;;;;;25.44;100.00;100610.91;5098553;27;45341;-64
2021/10/02 10:08:11;;;;;;;;;1.75;1.75;;;;;25.45;100.00;100599.25;5098344;27;45313;-64
2021/10/02 10:10:41;;;;;;;;;4.00;3.00;;;;;25.28;100.00;100605.91;5098100;27;46279;-65
2021/10/02 10:13:14;;;;;;;;;5.00;3.25;;;;;25.10;100.00;100618.00;5115561;27;45299;-65
2021/10/02 10:15:42;;;;;;;;;3.50;2.50;;;;;25.09;100.00;100599.44;5119255;27;45232;-63
2021/10/02 10:18:13;;;;;;;;;3.00;3.00;;;;;24.77;100.00;100584.03;5118852;27;45353;-65
2021/10/02 10:20:54;;;;;;;;;3.00;2.75;;;;;24.61;100.00;100568.31;5119012;27;46510;-64
2021/10/02 10:23:31;;;;;;;;;2.00;1.50;;;;;24.13;100.00;100557.63;5119256;27;45742;-64
2021/10/02 10:26:00;;;;;;;;;2.25;2.00;;;;;23.65;100.00;100558.53;5119118;27;45366;-62
2021/10/02 10:28:28;;;;;;;;;2.00;2.00;;;;;23.11;100.00;100580.06;5119157;27;45299;-63
2021/10/02 10:31:07;;;;;;;;;2.00;2.00;;;;;22.68;100.00;100587.44;5118597;27;46322;-64
2021/10/02 10:33:34;;;;;;;;;2.75;2.00;;;;;22.19;100.00;100564.06;5118744;27;45507;-65
2021/10/02 10:35:59;;;;;;;;;2.75;2.25;;;;;21.84;100.00;100555.69;5118669;27;45287;-66
2021/10/02 10:38:25;;;;;;;;;3.00;2.00;;;;;21.68;100.00;100575.25;5118815;27;45261;-64
2021/10/02 10:40:52;;;;;;;;;3.25;2.25;;;;;21.71;100.00;100568.88;5118924;27;46432;-64
2021/10/02 10:43:19;;;;;;;;;3.25;2.00;;;;;21.85;100.00;100579.50;5118931;27;45370;-65
2021/10/02 10:45:45;;;;;;;;;2.00;1.25;;;;;21.89;100.00;100582.81;5118598;27;45350;-65
2021/10/02 10:48:12;;;;;;;;;2.75;1.75;;;;;21.79;100.00;100573.72;5118464;27;45444;-63
2021/10/02 10:50:41;;;;;;;;;3.50;3.00;;;;;21.67;100.00;100562.06;5118016;27;46232;-63
2021/10/02 10:53:08;;;;;;;;;2.00;2.00;;;;;21.51;100.00;100561.34;5117948;27;45424;-63
2021/10/02 10:55:48;;;;;;;;;2.00;2.00;;;;;21.27;100.00;100542.44;5118287;27;45414;-63
2021/10/02 10:58:22;;;;;;;;;1.00;1.00;;;;;21.03;100.00;100536.78;5100209;27;45575;-66
2021/10/02 11:00:47;;;;;;;;;2.00;2.00;;;;;20.84;100.00;100528.25;5118793;27;46476;-66
2021/10/02 11:03:36;;;;;;;;;2.25;2.25;;;;;20.68;100.00;100538.94;5118889;27;45393;-66
2021/10/02 11:06:03;;;;;;;;;2.00;2.00;;;;;20.47;100.00;100504.78;5118552;27;45287;-66
2021/10/02 11:09:04;;;;;;;;;1.00;1.00;;;;;20.42;100.00;100520.09;5118640;27;45387;-66
2021/10/02 11:11:50;;;;;;;;;3.00;2.25;;;;;20.29;100.00;100512.91;5118373;27;46253;-66
2021/10/02 11:14:21;;;;;;;;;2.25;2.25;;;;;20.18;100.00;100517.06;5034859;28;45553;-67
2021/10/02 11:16:48;;;;;;;;;2.75;2.00;;;;;20.07;100.00;100503.53;5035165;28;45446;-66
2021/10/02 11:19:34;;;;;;;;;1.00;1.00;;;;;20.05;100.00;100509.88;5034967;28;45404;-70
2021/10/02 11:22:58;;;;;;;;;3.00;2.75;;;;;20.03;100.00;100498.50;5034718;28;46283;-67
2021/10/02 11:25:24;;;;;;;;;4.00;1.00;;;;;20.05;100.00;100502.78;5034889;28;45275;-67
2021/10/02 11:27:51;;;;;;;;;2.00;2.00;;;;;20.03;100.00;100479.97;5034898;28;45472;-67
2021/10/02 11:30:19;;;;;;;;;3.00;2.00;;;;;20.02;100.00;100473.81;5035754;28;45462;-66
2021/10/02 11:32:45;;;;;;;;;1.25;0.75;;;;;20.05;100.00;100478.91;5038066;28;45366;-66
2021/10/02 11:35:34;;;;;;;;;2.25;2.00;;;;;20.07;100.00;100462.94;5038425;28;45389;-66
2021/10/02 11:41:48;;;;;;;;;2.75;2.00;;;;;20.38;100.00;100451.41;5038496;28;45479;-65
2021/10/02 11:44:21;;;;;;;;;2.25;2.00;;;;;20.40;100.00;100434.47;5038095;28;45594;-67
2021/10/02 11:46:46;;;;;;;;;3.25;2.50;;;;;20.27;100.00;100420.19;5021454;28;45627;-67
2021/10/02 11:49:21;;;;;;;;;2.50;1.50;;;;;20.16;100.00;100441.22;5021697;28;45512;-66
2021/10/02 11:52:08;;;;;;;;;4.00;3.00;;;;;20.07;100.00;100431.13;5093886;27;45349;-66
2021/10/02 11:58:07;;;;;;;;;2.75;2.75;;;;;19.82;100.00;100411.34;5121733;27;45198;-66
2021/10/02 12:00:39;;;;;;;;;3.00;2.00;;;;;19.64;100.00;100407.09;5121661;27;45311;-67
2021/10/02 12:03:06;;;;;;;;;2.00;2.00;;;;;19.49;100.00;100407.97;5120483;27;45478;-66
2021/10/02 12:05:32;;;;;;;;;2.25;2.25;;;;;19.35;100.00;100382.25;5121331;27;47201;-65
2021/10/02 12:07:58;;;;;;;;;4.25;3.00;;;;;19.22;100.00;100374.13;5121470;27;45600;-66
2021/10/02 12:10:24;;;;;;;;;2.75;2.75;;;;;19.13;100.00;100372.00;5121598;27;45471;-66
2021/10/02 12:12:49;;;;;;;;;2.50;2.00;;;;;19.04;100.00;100355.81;5121256;27;45350;-65
2021/10/02 12:15:35;;;;;;;;;3.25;2.00;;;;;19.03;100.00;100352.31;5121113;27;46434;-67
2021/10/02 12:18:01;;;;;;;;;2.50;2.00;;;;;18.98;100.00;100352.53;5121549;27;45342;-66
2021/10/02 12:20:39;;;;;;;;;3.50;3.00;;;;;18.95;100.00;100334.19;5121459;27;45415;-65
2021/10/02 12:23:10;;;;;;;;;2.75;2.00;;;;;18.87;100.00;100340.84;5121491;27;45249;-66
2021/10/02 12:25:35;;;;;;;;;3.00;3.00;;;;;18.86;100.00;100355.88;5102628;27;46163;-65
2021/10/02 12:28:01;;;;;;;;;2.00;2.00;;;;;18.82;100.00;100343.75;5121005;27;45433;-66
2021/10/02 12:30:26;;;;;;;;;2.00;1.50;;;;;18.86;100.00;100365.59;5121617;27;45288;-67
2021/10/02 12:33:01;;;;;;;;;1.00;1.00;;;;;18.67;100.00;100332.22;5102875;27;45385;-64
2021/10/02 12:35:26;;;;;;;;;3.75;2.75;;;;;18.77;100.00;100352.84;5119499;27;46230;-65
2021/10/02 12:37:56;;;;;;;;;2.00;2.00;;;;;18.79;100.00;100364.22;5120620;27;45369;-64
2021/10/02 12:40:26;;;;;;;;;2.00;2.00;;;;;18.79;100.00;100356.28;5120831;27;45295;-66
2021/10/02 12:42:54;;;;;;;;;2.00;2.00;;;;;18.77;100.00;100356.34;5120783;27;45381;-66
2021/10/02 12:45:23;;;;;;;;;2.00;2.00;;;;;18.78;100.00;100344.81;5120566;27;47489;-65
2021/10/02 12:47:51;;;;;;;;;2.25;2.25;;;;;18.77;100.00;100332.53;5101848;27;45612;-65
2021/10/02 12:50:22;;;;;;;;;2.00;0.00;;;;;18.76;100.00;100322.91;5120417;27;45437;-66
2021/10/02 12:52:48;;;;;;;;;3.25;2.50;;;;;18.67;100.00;100300.47;5120625;27;45488;-66
2021/10/02 12:55:16;;;;;;;;;2.50;2.50;;;;;18.70;100.00;100291.50;5120067;27;46422;-67
2021/10/02 12:57:43;;;;;;;;;1.75;1.75;;;;;18.66;100.00;100290.84;5120343;27;45735;-65
2021/10/02 13:00:16;;;;;;;;;3.25;3.25;;;;;18.68;100.00;100288.09;5120476;27;45271;-65
2021/10/02 13:02:57;;;;;;;;;2.75;2.50;;;;;18.65;100.00;100286.47;5102043;27;45598;-65
2021/10/02 13:05:27;;;;;;;;;1.00;1.00;;;;;18.61;100.00;100279.63;5120170;27;46381;-65
2021/10/02 13:07:58;;;;;;;;;3.00;3.00;;;;;18.56;100.00;100263.16;5120467;27;45553;-67
2021/10/02 13:10:26;;;;;;;;;3.00;3.00;;;;;18.54;100.00;100248.28;5120407;27;45484;-65
2021/10/02 13:13:10;;;;;;;;;4.00;3.00;;;;;18.51;100.00;100249.31;5120173;27;45329;-66
2021/10/02 13:15:38;;;;;;;;;3.00;3.00;;;;;18.48;100.00;100253.94;5120172;27;45527;-66
2021/10/02 13:18:14;;;;;;;;;1.50;1.50;;;;;18.38;100.00;100224.50;5120303;27;45229;-66
2021/10/02 13:20:39;;;;;;;;;5.00;4.00;;;;;18.35;100.00;100220.25;5120230;27;45297;-65
2021/10/02 13:23:10;;;;;;;;;3.00;3.00;;;;;18.25;100.00;100213.75;5120221;27;45268;-64
2021/10/02 13:25:53;;;;;;;;;2.00;0.00;;;;;18.16;100.00;100193.13;5120036;27;46155;-64
2021/10/02 13:28:29;;;;;;;;;2.25;2.25;;;;;18.17;100.00;100189.53;5119862;27;45372;-66
2021/10/02 13:30:57;;;;;;;;;3.00;3.00;;;;;18.16;100.00;100176.41;5118579;27;45418;-66
2021/10/02 13:33:24;;;;;;;;;3.25;3.25;;;;;18.08;100.00;100155.66;5119814;27;45453;-66
2021/10/02 13:35:55;;;;;;;;;3.00;2.50;;;;;18.12;100.00;100165.16;5101240;27;47119;-65